Time;durP1;ratioP1;P1;durP2;ratioP2;P2;SDS_P1;SDS_P2;PMS_P1;PMS_P2;Temp;Humidity;BMP_temperature;BMP_pressure;BME280_temperature;BME280_humidity;BME280_pressure;Samples;Min_cycle;Max_cycle;Signal;HPM_P1;HPM_P2
2022/07/22 00:00:41;;;;;;;16.83;4.40;;;15.70;99.90;;;;;;4992333;28;211114;-67
2022/07/22 00:03:07;;;;;;;17.33;5.03;;;15.70;99.90;;;;;;5037378;28;20042;-68
2022/07/22 00:05:33;;;;;;;17.50;4.63;;;15.70;99.90;;;;;;4952548;28;261737;-68
2022/07/22 00:07:59;;;;;;;15.98;4.68;;;15.60;99.90;;;;;;5021003;28;20049;-68
2022/07/22 00:10:25;;;;;;;19.90;4.90;;;15.60;99.90;;;;;;4984737;28;211805;-68
2022/07/22 00:12:52;;;;;;;19.75;4.40;;;15.70;99.90;;;;;;5020766;28;207024;-68
2022/07/22 00:15:18;;;;;;;18.23;4.63;;;15.70;99.90;;;;;;5021910;28;269225;-67
2022/07/22 00:17:44;;;;;;;17.27;4.53;;;15.60;99.90;;;;;;4991636;28;201088;-68
2022/07/22 00:20:10;;;;;;;17.58;3.83;;;15.70;99.90;;;;;;5022633;28;263182;-67
2022/07/22 00:22:36;;;;;;;16.90;4.22;;;15.60;99.90;;;;;;4991641;28;209612;-67
2022/07/22 00:25:04;;;;;;;14.60;4.60;;;15.60;99.90;;;;;;5029225;28;145143;-67
2022/07/22 00:27:30;;;;;;;17.30;4.00;;;15.60;99.90;;;;;;5002709;28;213703;-67
2022/07/22 00:29:56;;;;;;;21.33;4.45;;;15.60;99.90;;;;;;5029827;28;266891;-68
2022/07/22 00:32:23;;;;;;;16.70;3.85;;;15.60;99.90;;;;;;5005775;28;210649;-67
2022/07/22 00:34:49;;;;;;;18.73;4.13;;;15.50;99.90;;;;;;5030603;28;273525;-68
2022/07/22 00:37:15;;;;;;;15.95;3.92;;;15.50;99.90;;;;;;4993041;28;209526;-68
2022/07/22 00:39:41;;;;;;;16.73;3.80;;;15.50;99.90;;;;;;5019480;28;275098;-68
2022/07/22 00:42:08;;;;;;;16.05;3.55;;;15.60;99.90;;;;;;4986928;28;205855;-68
2022/07/22 00:44:34;;;;;;;19.90;3.90;;;15.60;99.90;;;;;;5016993;28;255885;-68
2022/07/22 00:47:00;;;;;;;23.52;4.22;;;15.60;99.90;;;;;;4984062;28;208526;-68
2022/07/22 00:49:26;;;;;;;17.30;3.70;;;15.60;99.90;;;;;;5009646;28;264487;-68
2022/07/22 00:51:53;;;;;;;15.95;3.35;;;15.60;99.90;;;;;;5010013;28;217870;-67
2022/07/22 00:54:19;;;;;;;16.10;3.50;;;15.60;99.90;;;;;;5003862;28;202036;-67
2022/07/22 00:56:45;;;;;;;17.40;3.88;;;15.60;99.90;;;;;;4984007;28;223744;-68
2022/07/22 00:59:13;;;;;;;16.65;3.80;;;15.60;99.90;;;;;;5027984;28;266805;-68
2022/07/22 01:01:39;;;;;;;18.83;3.50;;;15.60;99.90;;;;;;5013574;28;208256;-69
2022/07/22 01:04:06;;;;;;;13.82;3.40;;;15.60;99.90;;;;;;4997156;28;170463;-68
2022/07/22 01:06:32;;;;;;;17.92;3.65;;;15.60;99.90;;;;;;4994469;28;208324;-68
2022/07/22 01:08:59;;;;;;;21.25;4.07;;;15.60;99.90;;;;;;5014175;28;211215;-67
2022/07/22 01:11:26;;;;;;;19.17;3.40;;;15.60;99.90;;;;;;4995478;28;205993;-68
2022/07/22 01:13:54;;;;;;;17.77;3.60;;;15.60;99.90;;;;;;5021444;28;20059;-68
2022/07/22 01:16:21;;;;;;;18.88;3.83;;;15.60;99.90;;;;;;4994525;28;206112;-68
2022/07/22 01:18:47;;;;;;;17.92;3.45;;;15.60;99.90;;;;;;5019241;28;254172;-68
2022/07/22 01:21:14;;;;;;;14.88;3.28;;;15.60;99.90;;;;;;4999965;28;206277;-68
2022/07/22 01:23:41;;;;;;;16.27;3.65;;;15.60;99.90;;;;;;5026591;28;27805;-68
2022/07/22 01:26:07;;;;;;;16.25;3.65;;;15.60;99.90;;;;;;5002609;28;209712;-68
2022/07/22 01:28:33;;;;;;;11.98;3.03;;;15.60;99.90;;;;;;5017932;28;253793;-68
2022/07/22 01:31:00;;;;;;;15.30;3.47;;;15.50;99.90;;;;;;4991546;28;207608;-68
2022/07/22 01:33:26;;;;;;;14.05;3.30;;;15.50;99.90;;;;;;5024827;28;276685;-68
2022/07/22 01:35:53;;;;;;;16.52;3.28;;;15.50;99.90;;;;;;4997026;28;206480;-68
2022/07/22 01:38:19;;;;;;;17.33;3.70;;;15.50;99.90;;;;;;5029696;28;268223;-68
2022/07/22 01:40:46;;;;;;;16.27;3.38;;;15.50;99.90;;;;;;4996917;28;216494;-68
2022/07/22 01:43:15;;;;;;;14.80;2.92;;;15.60;99.90;;;;;;5043096;28;20057;-68
2022/07/22 01:45:42;;;;;;;14.68;3.10;;;15.60;99.90;;;;;;4929684;28;215877;-68
2022/07/22 01:48:08;;;;;;;15.98;3.13;;;15.50;99.90;;;;;;5051870;28;20049;-68
2022/07/22 01:50:34;;;;;;;18.42;3.10;;;15.50;99.90;;;;;;4989730;28;262802;-68
2022/07/22 01:53:00;;;;;;;15.98;2.67;;;15.50;99.90;;;;;;5033015;28;20049;-68
2022/07/22 01:55:26;;;;;;;14.55;2.45;;;15.50;99.90;;;;;;4995253;28;281200;-68
2022/07/22 01:57:53;;;;;;;12.55;2.70;;;15.40;99.90;;;;;;5023733;28;244592;-68
2022/07/22 02:00:19;;;;;;;14.13;2.40;;;15.40;99.90;;;;;;5026423;28;72014;-68
2022/07/22 02:02:45;;;;;;;14.20;2.40;;;15.40;99.90;;;;;;4976675;28;206036;-68
2022/07/22 02:05:12;;;;;;;13.93;2.40;;;15.40;99.90;;;;;;5012870;28;253136;-68
2022/07/22 02:07:38;;;;;;;13.55;2.42;;;15.30;99.90;;;;;;4983917;28;209678;-68
2022/07/22 02:10:05;;;;;;;13.70;2.42;;;15.30;99.90;;;;;;5017537;28;276254;-68
2022/07/22 02:12:31;;;;;;;16.52;2.35;;;15.30;99.90;;;;;;4996769;28;220896;-68
2022/07/22 02:14:57;;;;;;;13.82;2.72;;;15.40;99.90;;;;;;5032250;28;206236;-67
2022/07/22 02:17:24;;;;;;;14.05;2.35;;;15.30;99.90;;;;;;4980663;28;210172;-68
2022/07/22 02:19:50;;;;;;;14.02;2.63;;;15.30;99.90;;;;;;5015817;28;271484;-67
2022/07/22 02:22:16;;;;;;;13.05;2.55;;;15.30;99.90;;;;;;4964366;28;206250;-68
2022/07/22 02:24:43;;;;;;;14.35;2.58;;;15.30;99.90;;;;;;5005328;28;85727;-67
2022/07/22 02:27:09;;;;;;;14.07;2.50;;;15.30;99.90;;;;;;4991606;28;176106;-68
2022/07/22 02:29:35;;;;;;;8.52;2.10;;;15.30;99.90;;;;;;5022188;28;51311;-68
2022/07/22 02:32:01;;;;;;;10.88;1.90;;;15.30;99.90;;;;;;5001850;28;151076;-68
2022/07/22 02:34:28;;;;;;;11.30;2.25;;;15.30;99.90;;;;;;5014531;28;273891;-68
2022/07/22 02:36:54;;;;;;;13.77;2.50;;;15.40;99.90;;;;;;4959069;28;206743;-68
2022/07/22 02:39:20;;;;;;;11.60;2.58;;;15.30;99.90;;;;;;5029195;28;251168;-68
2022/07/22 02:41:46;;;;;;;11.82;2.50;;;15.30;99.90;;;;;;5001759;28;209452;-67
2022/07/22 02:44:12;;;;;;;13.13;2.35;;;15.40;99.90;;;;;;5014640;28;271477;-68
2022/07/22 02:46:39;;;;;;;10.63;2.00;;;15.40;99.90;;;;;;4979747;28;216419;-68
2022/07/22 02:49:05;;;;;;;13.82;2.50;;;15.30;99.90;;;;;;4989556;28;103186;-68
2022/07/22 02:51:31;;;;;;;9.75;2.00;;;15.40;99.90;;;;;;4997134;28;211980;-68
2022/07/22 02:53:57;;;;;;;11.13;2.45;;;15.40;99.90;;;;;;5021841;28;253610;-68
2022/07/22 02:56:24;;;;;;;13.40;2.40;;;15.30;99.90;;;;;;4997580;28;163750;-68
2022/07/22 02:58:52;;;;;;;13.55;2.88;;;15.40;99.90;;;;;;5024209;28;259345;-68
2022/07/22 03:01:19;;;;;;;10.30;2.05;;;15.30;99.90;;;;;;4994067;28;206323;-68
2022/07/22 03:03:45;;;;;;;11.68;2.00;;;15.30;99.90;;;;;;4988806;28;175483;-69
2022/07/22 03:06:12;;;;;;;12.45;2.17;;;15.30;99.90;;;;;;4973820;28;214030;-68
2022/07/22 03:08:38;;;;;;;14.82;2.55;;;15.30;99.90;;;;;;5018724;28;81876;-68
2022/07/22 03:11:05;;;;;;;10.90;2.13;;;15.30;99.90;;;;;;5000670;28;208276;-68
2022/07/22 03:13:32;;;;;;;17.95;2.55;;;15.30;99.90;;;;;;5003241;28;260201;-68
2022/07/22 03:15:58;;;;;;;10.43;2.17;;;15.40;99.90;;;;;;5011593;28;217930;-68
2022/07/22 03:18:24;;;;;;;10.63;2.00;;;15.40;99.90;;;;;;5028406;28;272167;-68
2022/07/22 03:20:50;;;;;;;13.68;2.17;;;15.40;99.90;;;;;;4998022;28;206815;-68
2022/07/22 03:23:16;;;;;;;14.60;2.60;;;15.40;99.90;;;;;;5003557;28;260489;-67
2022/07/22 03:25:43;;;;;;;14.70;2.17;;;15.40;99.90;;;;;;4972482;28;216636;-67
2022/07/22 03:28:10;;;;;;;14.77;2.28;;;15.40;99.90;;;;;;5039738;28;20073;-67
2022/07/22 03:30:36;;;;;;;15.40;2.05;;;15.40;99.90;;;;;;4970883;28;280073;-68
2022/07/22 03:33:02;;;;;;;13.10;2.17;;;15.40;99.90;;;;;;5048788;28;20061;-67
2022/07/22 03:35:29;;;;;;;14.23;2.20;;;15.40;99.90;;;;;;4971114;28;262367;-66
2022/07/22 03:37:55;;;;;;;11.35;2.30;;;15.40;99.90;;;;;;5023358;28;20499;-67
2022/07/22 03:40:21;;;;;;;13.73;2.42;;;15.30;99.90;;;;;;5017727;28;251012;-67
2022/07/22 03:42:47;;;;;;;12.15;2.20;;;15.30;99.90;;;;;;5000681;28;137597;-67
2022/07/22 03:45:13;;;;;;;14.38;2.38;;;15.40;99.90;;;;;;5020925;28;272727;-67
2022/07/22 03:47:40;;;;;;;13.65;2.85;;;15.30;99.90;;;;;;4993803;28;205938;-68
2022/07/22 03:50:07;;;;;;;11.23;2.30;;;15.30;99.90;;;;;;5006312;28;20057;-68
2022/07/22 03:52:33;;;;;;;12.07;2.22;;;15.30;99.90;;;;;;4973079;28;209744;-67
2022/07/22 03:54:59;;;;;;;13.48;2.30;;;15.30;99.90;;;;;;5026720;28;206482;-68
2022/07/22 03:57:27;;;;;;;12.32;2.47;;;15.30;99.90;;;;;;5000552;28;209411;-68
2022/07/22 03:59:53;;;;;;;15.50;2.75;;;15.30;99.90;;;;;;5028324;28;257258;-67
2022/07/22 04:02:19;;;;;;;12.27;2.35;;;15.30;99.90;;;;;;4995943;28;212844;-67
2022/07/22 04:04:45;;;;;;;11.52;2.10;;;15.30;99.90;;;;;;5002708;28;246881;-68
2022/07/22 04:07:11;;;;;;;13.60;2.80;;;15.30;99.90;;;;;;4984402;28;157503;-68
2022/07/22 04:09:37;;;;;;;12.93;2.42;;;15.30;99.90;;;;;;5018583;28;265671;-67
2022/07/22 04:12:04;;;;;;;14.25;2.40;;;15.30;99.90;;;;;;4987548;28;213614;-68
2022/07/22 04:14:31;;;;;;;11.65;2.42;;;15.30;99.90;;;;;;5022913;28;136545;-68
2022/07/22 04:16:57;;;;;;;12.35;2.42;;;15.30;99.90;;;;;;4986638;28;214890;-68
2022/07/22 04:19:23;;;;;;;10.63;2.17;;;15.30;99.90;;;;;;5021202;28;38163;-68
2022/07/22 04:21:49;;;;;;;10.15;2.03;;;15.40;99.90;;;;;;4985124;28;210042;-68
2022/07/22 04:24:15;;;;;;;11.63;2.13;;;15.40;99.90;;;;;;5012617;28;266452;-68
2022/07/22 04:26:42;;;;;;;12.93;2.17;;;15.40;99.90;;;;;;4988883;28;209039;-68
2022/07/22 04:29:08;;;;;;;10.60;2.38;;;15.40;99.90;;;;;;4999646;28;173496;-67
2022/07/22 04:31:34;;;;;;;16.30;2.33;;;15.30;99.90;;;;;;4994564;28;185042;-68
2022/07/22 04:34:00;;;;;;;11.88;2.10;;;15.40;99.90;;;;;;5022118;28;265116;-67
2022/07/22 04:36:26;;;;;;;9.82;1.98;;;15.40;99.90;;;;;;4985119;28;210947;-68
2022/07/22 04:38:53;;;;;;;10.35;2.20;;;15.40;99.90;;;;;;5021947;28;273241;-67
2022/07/22 04:41:19;;;;;;;9.93;1.90;;;15.40;99.90;;;;;;4997129;28;209036;-68
2022/07/22 04:43:45;;;;;;;13.18;1.95;;;15.30;99.90;;;;;;5028302;28;271579;-67
2022/07/22 04:46:11;;;;;;;10.35;2.10;;;15.40;99.90;;;;;;5002163;28;210197;-68
2022/07/22 04:48:37;;;;;;;16.33;2.10;;;15.40;99.90;;;;;;5028709;28;274750;-68
2022/07/22 04:51:04;;;;;;;9.68;1.80;;;15.40;99.90;;;;;;4990841;28;221141;-67
2022/07/22 04:53:30;;;;;;;9.67;1.80;;;15.40;99.90;;;;;;5003666;28;276190;-67
2022/07/22 04:55:56;;;;;;;11.18;1.95;;;15.40;99.90;;;;;;4995698;28;230774;-67
2022/07/22 04:58:22;;;;;;;10.13;1.88;;;15.50;99.90;;;;;;5004968;28;305150;-67
2022/07/22 05:00:49;;;;;;;11.85;2.25;;;15.50;99.90;;;;;;4980322;28;208532;-68
2022/07/22 05:03:15;;;;;;;13.82;2.30;;;15.50;99.90;;;;;;5033255;28;272922;-67
2022/07/22 05:05:41;;;;;;;12.35;2.13;;;15.50;99.90;;;;;;4981679;28;210046;-67
2022/07/22 05:08:07;;;;;;;9.60;2.20;;;15.50;99.90;;;;;;5050979;28;20116;-67
2022/07/22 05:10:33;;;;;;;11.63;2.10;;;15.50;99.90;;;;;;4971429;28;274564;-67
2022/07/22 05:13:00;;;;;;;11.20;2.15;;;15.60;99.90;;;;;;5033801;28;20050;-67
2022/07/22 05:15:26;;;;;;;11.48;2.08;;;15.60;99.90;;;;;;5001022;28;223384;-67
2022/07/22 05:17:52;;;;;;;12.63;2.13;;;15.60;99.90;;;;;;5000544;28;206321;-67
2022/07/22 05:20:18;;;;;;;10.38;1.92;;;15.70;99.90;;;;;;5016195;28;160759;-66
2022/07/22 05:22:45;;;;;;;11.55;2.20;;;15.70;99.90;;;;;;4978323;28;209945;-67
2022/07/22 05:25:11;;;;;;;11.85;2.13;;;15.70;99.90;;;;;;5028117;28;260814;-68
2022/07/22 05:27:37;;;;;;;11.05;2.20;;;15.70;99.90;;;;;;4993372;28;70072;-67
2022/07/22 05:30:04;;;;;;;12.40;2.00;;;15.80;99.90;;;;;;5023488;28;85538;-68
2022/07/22 05:32:30;;;;;;;14.90;2.00;;;15.80;99.90;;;;;;4993988;28;212756;-67
2022/07/22 05:34:57;;;;;;;8.13;1.73;;;15.80;99.90;;;;;;5010817;28;237482;-67
2022/07/22 05:37:23;;;;;;;10.27;2.20;;;15.80;99.90;;;;;;4990888;28;209887;-67
2022/07/22 05:39:49;;;;;;;9.48;2.15;;;15.90;99.90;;;;;;5023390;28;146991;-67
2022/07/22 05:42:15;;;;;;;14.57;2.17;;;15.90;99.90;;;;;;4996074;28;207567;-67
2022/07/22 05:44:41;;;;;;;10.38;1.85;;;15.90;99.90;;;;;;5020349;28;268491;-67
2022/07/22 05:47:07;;;;;;;11.40;1.80;;;15.90;99.90;;;;;;4993383;28;209544;-67
2022/07/22 05:49:33;;;;;;;12.32;2.17;;;15.90;99.90;;;;;;5026851;28;20411;-68
2022/07/22 05:52:00;;;;;;;9.80;1.73;;;15.90;99.90;;;;;;4970525;28;206515;-67
2022/07/22 05:54:28;;;;;;;12.60;1.92;;;16.00;99.90;;;;;;5024373;28;272346;-67
2022/07/22 05:56:54;;;;;;;11.85;1.98;;;16.00;99.90;;;;;;4988751;28;209475;-68
2022/07/22 05:59:20;;;;;;;10.68;1.98;;;16.00;99.90;;;;;;5018882;28;212138;-67
2022/07/22 06:01:46;;;;;;;11.88;2.20;;;16.10;99.90;;;;;;4993956;28;221530;-68
2022/07/22 06:04:12;;;;;;;11.43;2.10;;;16.10;99.90;;;;;;5004974;28;265110;-68
2022/07/22 06:06:39;;;;;;;11.07;2.15;;;16.10;99.90;;;;;;4999995;28;212838;-68
2022/07/22 06:09:05;;;;;;;11.60;2.40;;;16.10;99.90;;;;;;5023349;28;257781;-68
2022/07/22 06:11:31;;;;;;;11.80;2.17;;;16.20;99.90;;;;;;4999707;28;126257;-69
2022/07/22 06:13:57;;;;;;;10.98;2.10;;;16.30;99.90;;;;;;5025933;28;23258;-68
2022/07/22 06:16:23;;;;;;;10.95;2.00;;;16.30;99.90;;;;;;4996711;28;215799;-68
2022/07/22 06:18:50;;;;;;;11.43;2.20;;;16.40;99.90;;;;;;5008321;28;152165;-68
2022/07/22 06:21:16;;;;;;;10.75;2.08;;;16.40;99.90;;;;;;4984637;28;212825;-68
2022/07/22 06:23:42;;;;;;;10.45;1.92;;;16.40;99.90;;;;;;5004167;28;20079;-68
2022/07/22 06:26:08;;;;;;;11.68;1.95;;;16.60;99.90;;;;;;4977114;28;205066;-68
2022/07/22 06:28:34;;;;;;;12.23;2.30;;;16.60;99.90;;;;;;4994654;28;271942;-68
2022/07/22 06:31:00;;;;;;;12.57;2.03;;;16.60;99.90;;;;;;4994167;28;212809;-68
2022/07/22 06:33:27;;;;;;;9.75;2.22;;;16.70;99.90;;;;;;5025816;28;254821;-68
2022/07/22 06:35:53;;;;;;;10.75;1.90;;;16.70;99.90;;;;;;4996840;28;209314;-68
2022/07/22 06:38:19;;;;;;;13.10;2.37;;;16.80;99.90;;;;;;5017542;28;271556;-67
2022/07/22 06:40:45;;;;;;;11.48;2.05;;;16.80;99.90;;;;;;4992404;28;209625;-68
2022/07/22 06:43:11;;;;;;;10.05;2.10;;;16.90;99.90;;;;;;5011525;28;20408;-68
2022/07/22 06:45:37;;;;;;;9.55;1.85;;;16.90;99.90;;;;;;4959048;28;222551;-67
2022/07/22 06:48:04;;;;;;;13.85;2.05;;;16.90;99.90;;;;;;5002527;28;20133;-67
2022/07/22 06:50:30;;;;;;;12.73;2.00;;;17.00;99.90;;;;;;4978202;28;208246;-67
2022/07/22 06:52:56;;;;;;;12.25;2.05;;;17.10;99.90;;;;;;5041786;28;20529;-68
2022/07/22 06:55:23;;;;;;;11.13;2.38;;;17.20;99.90;;;;;;5014418;28;271940;-66
2022/07/22 06:57:49;;;;;;;13.40;2.10;;;17.20;99.90;;;;;;5013127;28;213010;-67
2022/07/22 07:00:16;;;;;;;8.85;1.65;;;17.30;99.90;;;;;;5038498;28;274386;-68
2022/07/22 07:02:42;;;;;;;10.07;2.00;;;17.40;99.90;;;;;;4974625;28;212030;-66
2022/07/22 07:05:08;;;;;;;9.48;1.80;;;17.40;99.90;;;;;;4994031;28;128614;-66
2022/07/22 07:07:34;;;;;;;10.30;2.00;;;17.50;99.90;;;;;;4997598;28;207525;-67
2022/07/22 07:10:01;;;;;;;8.60;1.80;;;17.50;99.90;;;;;;5014546;28;259204;-67
2022/07/22 07:12:27;;;;;;;10.85;1.80;;;17.60;99.90;;;;;;4992699;28;221394;-67
2022/07/22 07:14:53;;;;;;;13.60;1.80;;;17.60;99.90;;;;;;5022223;28;275523;-68
2022/07/22 07:17:19;;;;;;;12.43;2.00;;;17.70;99.90;;;;;;4999140;28;215397;-67
2022/07/22 07:19:45;;;;;;;13.90;1.70;;;17.70;99.90;;;;;;5017323;28;72761;-67
2022/07/22 07:22:12;;;;;;;9.65;1.70;;;17.80;99.90;;;;;;5009313;28;209985;-67
2022/07/22 07:24:38;;;;;;;9.15;1.70;;;17.80;99.90;;;;;;5019360;28;259637;-68
2022/07/22 07:27:04;;;;;;;11.77;2.13;;;17.80;99.90;;;;;;4993354;28;216101;-67
2022/07/22 07:29:30;;;;;;;8.35;1.80;;;17.90;99.90;;;;;;5028182;28;256546;-67
2022/07/22 07:31:56;;;;;;;10.15;1.65;;;17.90;99.90;;;;;;4989355;28;219177;-67
2022/07/22 07:34:23;;;;;;;10.13;1.45;;;17.90;99.90;;;;;;5018324;28;262060;-67
2022/07/22 07:36:49;;;;;;;11.70;1.60;;;18.00;99.90;;;;;;4988520;28;211030;-67
2022/07/22 07:39:15;;;;;;;9.55;1.60;;;18.00;99.90;;;;;;5018655;28;260458;-67
2022/07/22 07:41:41;;;;;;;10.43;1.90;;;18.00;99.90;;;;;;4989215;28;215787;-67
2022/07/22 07:44:07;;;;;;;8.75;1.50;;;18.00;99.90;;;;;;5020097;28;263972;-68
2022/07/22 07:46:34;;;;;;;11.20;1.98;;;18.00;99.90;;;;;;5002157;28;211338;-68
2022/07/22 07:49:00;;;;;;;9.00;1.27;;;18.00;99.90;;;;;;5020549;28;268715;-66
2022/07/22 07:51:26;;;;;;;10.27;1.80;;;18.00;99.90;;;;;;5003150;28;209158;-67
2022/07/22 07:53:52;;;;;;;12.77;1.75;;;18.00;99.90;;;;;;5018419;28;268538;-66
2022/07/22 07:56:18;;;;;;;10.40;1.50;;;18.00;99.90;;;;;;4998751;28;213361;-66
2022/07/22 07:58:45;;;;;;;10.38;1.40;;;18.10;99.90;;;;;;4995557;28;119712;-66
2022/07/22 08:01:11;;;;;;;7.82;1.50;;;18.10;99.90;;;;;;4989823;28;212692;-67
2022/07/22 08:03:37;;;;;;;8.57;1.45;;;18.20;99.90;;;;;;4980190;28;274732;-67
2022/07/22 08:06:03;;;;;;;11.43;1.50;;;18.20;99.90;;;;;;5010578;28;209012;-67
2022/07/22 08:08:30;;;;;;;11.90;1.60;;;18.30;99.90;;;;;;5032722;28;265781;-66
2022/07/22 08:10:56;;;;;;;11.38;1.73;;;18.40;99.90;;;;;;5004814;28;212252;-66
2022/07/22 08:13:22;;;;;;;7.00;1.50;;;18.60;99.90;;;;;;5016162;28;272907;-67
2022/07/22 08:15:48;;;;;;;7.93;1.50;;;18.60;99.90;;;;;;4993833;28;209966;-67
2022/07/22 08:18:14;;;;;;;8.75;1.52;;;18.70;99.90;;;;;;5010593;28;258571;-67
2022/07/22 08:20:41;;;;;;;11.57;1.67;;;18.80;99.90;;;;;;4975550;28;207532;-67
2022/07/22 08:23:07;;;;;;;9.38;1.55;;;18.90;99.90;;;;;;5036160;28;20415;-67
2022/07/22 08:25:33;;;;;;;11.27;1.52;;;19.10;99.90;;;;;;4969469;28;252664;-67
2022/07/22 08:28:00;;;;;;;8.93;1.33;;;19.10;99.90;;;;;;5051991;28;20057;-68
2022/07/22 08:30:28;;;;;;;6.90;1.30;;;19.20;99.90;;;;;;4991448;28;253474;-68
2022/07/22 08:32:54;;;;;;;9.45;1.65;;;19.10;99.90;;;;;;5016302;28;206987;-67
2022/07/22 08:35:21;;;;;;;9.80;1.35;;;19.00;99.90;;;;;;5033818;28;38652;-68
2022/07/22 08:37:47;;;;;;;9.48;1.60;;;18.90;99.90;;;;;;4973597;28;208307;-67
2022/07/22 08:40:16;;;;;;;8.13;1.60;;;18.80;99.90;;;;;;5019762;28;231904;-67
2022/07/22 08:42:44;;;;;;;9.32;1.60;;;18.70;99.90;;;;;;4965017;28;104165;-68
2022/07/22 08:45:11;;;;;;;8.30;1.52;;;18.60;99.90;;;;;;5014129;28;269373;-67
2022/07/22 08:47:38;;;;;;;8.50;1.40;;;18.40;99.90;;;;;;4993865;28;209614;-68
2022/07/22 08:50:04;;;;;;;8.10;1.48;;;18.30;99.90;;;;;;5034166;28;253687;-68
2022/07/22 08:52:31;;;;;;;9.80;1.48;;;18.30;99.90;;;;;;4993751;28;191229;-68
2022/07/22 08:54:57;;;;;;;8.05;1.50;;;18.20;99.90;;;;;;5027113;28;266281;-68
2022/07/22 08:57:23;;;;;;;12.73;1.80;;;18.10;99.90;;;;;;4977989;28;209313;-68
2022/07/22 08:59:54;;;;;;;11.23;1.88;;;18.20;99.90;;;;;;5020325;28;116547;-69
2022/07/22 09:02:22;;;;;;;11.55;1.63;;;18.10;99.90;;;;;;5001666;28;208155;-69
2022/07/22 09:05:04;;;;;;;8.07;1.38;;;18.00;99.90;;;;;;5003884;28;198699;-68
2022/07/22 09:07:32;;;;;;;10.50;1.55;;;18.00;99.90;;;;;;5027959;28;79648;-68
2022/07/22 09:10:00;;;;;;;11.35;2.05;;;18.00;99.90;;;;;;5034253;28;271256;-68
2022/07/22 09:12:31;;;;;;;9.32;1.60;;;18.00;99.90;;;;;;4980605;28;218902;-68
2022/07/22 09:14:59;;;;;;;7.72;1.50;;;17.90;99.90;;;;;;5017780;28;279824;-67
2022/07/22 09:17:29;;;;;;;8.93;1.60;;;17.90;99.90;;;;;;4971360;28;209715;-67
2022/07/22 09:19:57;;;;;;;14.43;1.80;;;17.90;99.90;;;;;;5029878;28;259934;-68
2022/07/22 09:22:41;;;;;;;12.27;1.58;;;17.90;99.90;;;;;;5002230;28;216715;-68
2022/07/22 09:25:37;;;;;;;9.70;1.85;;;18.00;99.90;;;;;;5000097;28;243217;-66
2022/07/22 09:28:06;;;;;;;10.13;1.90;;;18.00;99.90;;;;;;4863097;29;206996;-66
2022/07/22 09:30:35;;;;;;;7.63;1.73;;;17.90;99.90;;;;;;4895103;28;204322;-67
2022/07/22 09:33:02;;;;;;;11.80;1.70;;;17.90;99.90;;;;;;4926526;29;20063;-68
2022/07/22 09:35:29;;;;;;;9.60;1.60;;;17.80;99.90;;;;;;4883546;28;207250;-68
2022/07/22 09:37:59;;;;;;;10.40;1.88;;;17.70;99.90;;;;;;4917039;29;20461;-67
2022/07/22 09:40:27;;;;;;;8.68;1.90;;;17.60;99.90;;;;;;4907994;28;146554;-68
2022/07/22 09:42:57;;;;;;;10.07;2.00;;;17.50;99.90;;;;;;4876659;29;206309;-68
2022/07/22 09:45:26;;;;;;;10.25;1.85;;;17.40;99.90;;;;;;4897789;28;197008;-68
2022/07/22 09:47:55;;;;;;;11.98;2.10;;;17.40;99.90;;;;;;4904716;28;186119;-69
2022/07/22 09:50:28;;;;;;;12.13;2.10;;;17.50;99.90;;;;;;4926902;28;91530;-68
2022/07/22 09:52:59;;;;;;;9.00;1.70;;;17.50;99.90;;;;;;4901284;28;207018;-68
2022/07/22 09:55:27;;;;;;;10.57;1.77;;;17.60;99.90;;;;;;4893197;28;217776;-67
2022/07/22 09:57:54;;;;;;;11.60;1.60;;;17.60;99.90;;;;;;4902430;28;208983;-68
2022/07/22 10:00:23;;;;;;;10.85;1.70;;;17.60;99.90;;;;;;4930761;28;221367;-68
2022/07/22 10:02:51;;;;;;;7.25;1.25;;;17.70;99.90;;;;;;4884165;28;213455;-69
2022/07/22 10:05:23;;;;;;;10.10;1.50;;;17.70;99.90;;;;;;4993964;28;265264;-69
2022/07/22 10:07:51;;;;;;;8.77;1.40;;;17.80;99.90;;;;;;4986786;28;94579;-68
2022/07/22 10:10:19;;;;;;;7.43;1.05;;;17.90;99.90;;;;;;5022115;28;278213;-68
2022/07/22 10:12:49;;;;;;;7.70;1.20;;;18.00;99.90;;;;;;4986923;28;200069;-68
2022/07/22 10:15:15;;;;;;;6.82;1.20;;;18.10;99.90;;;;;;5036007;28;253343;-68
2022/07/22 10:17:45;;;;;;;5.40;0.93;;;18.30;99.90;;;;;;4988788;28;210077;-68
2022/07/22 10:20:12;;;;;;;6.30;1.00;;;18.40;99.90;;;;;;5027634;28;277499;-68
2022/07/22 10:22:41;;;;;;;7.63;1.08;;;18.40;99.90;;;;;;5010339;28;212359;-68
2022/07/22 10:25:09;;;;;;;6.38;1.10;;;18.50;99.90;;;;;;5016983;28;252032;-68
2022/07/22 10:27:49;;;;;;;14.80;1.38;;;18.60;99.90;;;;;;5013021;28;219841;-68
2022/07/22 10:30:19;;;;;;;7.97;1.20;;;18.90;99.90;;;;;;5022269;28;235099;-68
2022/07/22 10:32:45;;;;;;;7.60;1.10;;;19.10;99.90;;;;;;4986650;28;206741;-68
2022/07/22 10:35:11;;;;;;;6.95;1.15;;;19.20;99.90;;;;;;5031183;28;276617;-68
2022/07/22 10:37:43;;;;;;;7.50;1.23;;;19.20;99.90;;;;;;4992631;28;212778;-68
2022/07/22 10:40:16;;;;;;;7.07;1.10;;;19.30;99.90;;;;;;5036769;28;84979;-69
2022/07/22 10:43:08;;;;;;;7.57;1.17;;;19.50;99.90;;;;;;4997188;28;209300;-69
2022/07/22 10:45:38;;;;;;;6.05;1.00;;;19.90;99.90;;;;;;4875259;28;156063;-69
2022/07/22 10:48:09;;;;;;;6.17;1.03;;;20.00;99.90;;;;;;4921833;29;20564;-68
2022/07/22 10:50:35;;;;;;;8.75;1.48;;;20.10;99.90;;;;;;4853451;29;212039;-68
2022/07/22 10:53:04;;;;;;;6.43;1.08;;;20.20;99.90;;;;;;4921318;28;20051;-74
2022/07/22 10:55:30;;;;;;;6.65;1.27;;;20.30;99.90;;;;;;4890487;28;236534;-68
2022/07/22 10:57:56;;;;;;;7.53;1.10;;;20.30;99.90;;;;;;4939351;29;20062;-68
2022/07/22 11:00:22;;;;;;;7.00;1.10;;;20.40;99.90;;;;;;4923661;28;243668;-69
2022/07/22 11:02:49;;;;;;;7.13;1.02;;;20.40;99.90;;;;;;4911341;28;208741;-69
2022/07/22 11:05:25;;;;;;;8.77;1.40;;;20.60;99.90;;;;;;4884637;29;151287;-68
2022/07/22 11:07:51;;;;;;;8.23;1.58;;;20.70;99.90;;;;;;4905203;28;197295;-69
2022/07/22 11:10:19;;;;;;;7.65;1.15;;;20.70;99.90;;;;;;4929974;28;28108;-69
2022/07/22 11:12:47;;;;;;;5.15;0.95;;;20.70;99.90;;;;;;4868904;29;208444;-68
2022/07/22 11:15:14;;;;;;;8.27;1.13;;;20.70;99.90;;;;;;4915829;28;36744;-68
2022/07/22 11:17:40;;;;;;;9.60;1.17;;;20.40;99.90;;;;;;4895504;28;206852;-68
2022/07/22 11:20:09;;;;;;;4.35;0.90;;;20.50;99.90;;;;;;4930035;28;233906;-68
2022/07/22 11:22:36;;;;;;;7.57;1.20;;;20.30;99.90;;;;;;4926000;28;211707;-68
2022/07/22 11:25:05;;;;;;;5.32;0.80;;;19.90;99.90;;;;;;5031874;28;277940;-69
2022/07/22 11:27:32;;;;;;;6.65;1.10;;;19.60;99.90;;;;;;4987047;28;210129;-68
2022/07/22 11:29:59;;;;;;;6.85;1.20;;;19.70;99.90;;;;;;5029910;28;269253;-69
2022/07/22 11:32:31;;;;;;;6.05;1.00;;;19.60;99.90;;;;;;4986392;28;206360;-69
2022/07/22 11:34:58;;;;;;;5.55;0.88;;;19.50;99.90;;;;;;5033204;28;270500;-67
2022/07/22 11:37:26;;;;;;;6.90;1.38;;;19.40;99.90;;;;;;4987375;28;147624;-68
2022/07/22 11:40:05;;;;;;;6.43;1.08;;;19.30;99.90;;;;;;5017178;28;235213;-69
2022/07/22 11:42:31;;;;;;;7.28;1.15;;;19.40;99.90;;;;;;5011531;28;209149;-68
2022/07/22 11:44:58;;;;;;;8.10;1.10;;;19.60;99.90;;;;;;5027887;28;114247;-69
2022/07/22 11:47:25;;;;;;;6.85;0.90;;;19.70;99.90;;;;;;4979834;28;215945;-69
2022/07/22 11:49:51;;;;;;;5.43;1.02;;;19.90;99.90;;;;;;5026045;28;255493;-69
2022/07/22 11:52:17;;;;;;;6.97;1.17;;;19.80;99.90;;;;;;4966665;28;206572;-69
2022/07/22 11:54:45;;;;;;;6.07;0.98;;;19.80;99.90;;;;;;5016169;28;261246;-69
2022/07/22 11:57:13;;;;;;;8.45;1.25;;;19.90;99.90;;;;;;4989717;28;212045;-69
2022/07/22 11:59:39;;;;;;;6.63;1.00;;;20.00;99.90;;;;;;5018309;28;257303;-68
2022/07/22 12:02:07;;;;;;;4.30;1.00;;;20.00;99.90;;;;;;5002695;28;187322;-68
2022/07/22 12:04:35;;;;;;;5.53;0.95;;;20.10;99.10;;;;;;4990057;28;265260;-68
2022/07/22 12:07:02;;;;;;;5.88;1.00;;;20.00;99.70;;;;;;4996409;28;219962;-67
2022/07/22 12:09:33;;;;;;;6.15;1.23;;;20.00;99.90;;;;;;5009009;28;97530;-69
2022/07/22 12:12:00;;;;;;;;;;;20.00;99.90;;;;;;4983352;28;209562;-68
2022/07/22 12:14:28;;;;;;;6.38;1.00;;;20.10;98.70;;;;;;5016742;28;257121;-68
2022/07/22 12:17:00;;;;;;;6.82;1.00;;;20.30;99.90;;;;;;4993580;28;225134;-68
2022/07/22 12:19:31;;;;;;;5.25;1.05;;;20.50;99.90;;;;;;5018260;28;261664;-69
2022/07/22 12:22:24;;;;;;;3.92;0.90;;;20.70;99.90;;;;;;4998774;28;216457;-68
2022/07/22 12:25:02;;;;;;;4.38;1.00;;;20.70;99.90;;;;;;5014215;28;136543;-68
2022/07/22 12:27:30;;;;;;;4.50;1.13;;;20.80;99.90;;;;;;4976537;28;209160;-68
2022/07/22 12:29:56;;;;;;;6.82;1.00;;;20.80;99.90;;;;;;5017108;28;260792;-68
2022/07/22 12:32:22;;;;;;;10.80;1.20;;;20.60;99.50;;;;;;4988124;28;210727;-68